createdAt,value
2023-01-11T00:00:56.367Z,10.70
2023-01-11T00:03:23.824Z,10.70
2023-01-11T00:05:55.255Z,10.70
2023-01-11T00:08:24.433Z,10.60
2023-01-11T00:10:52.188Z,10.60
2023-01-11T00:13:19.728Z,10.60
2023-01-11T00:15:47.088Z,10.60
2023-01-11T00:18:14.497Z,10.60
2023-01-11T00:20:42.119Z,10.60
2023-01-11T00:23:09.524Z,10.60
2023-01-11T00:25:37.256Z,10.60
2023-01-11T00:28:05.618Z,10.60
2023-01-11T00:30:33.476Z,10.60
2023-01-11T00:33:01.158Z,10.60
2023-01-11T00:35:30.933Z,10.60
2023-01-11T00:37:58.424Z,10.60
2023-01-11T00:40:27.068Z,10.70
2023-01-11T00:43:13.119Z,10.70
2023-01-11T00:45:59.577Z,10.60
2023-01-11T00:48:26.986Z,10.60
2023-01-11T00:50:56.859Z,10.60
2023-01-11T00:53:24.265Z,10.60
2023-01-11T00:55:51.609Z,10.60
2023-01-11T00:58:18.984Z,10.60
2023-01-11T01:00:46.365Z,10.60
2023-01-11T01:03:13.725Z,10.60
2023-01-11T01:05:41.063Z,10.60
2023-01-11T01:08:08.442Z,10.60
2023-01-11T01:10:35.813Z,10.50
2023-01-11T01:13:21.780Z,10.50
2023-01-11T01:15:49.208Z,10.50
2023-01-11T01:18:16.527Z,10.50
2023-01-11T01:20:43.907Z,10.40
2023-01-11T01:23:11.342Z,10.40
2023-01-11T01:25:38.757Z,10.30
2023-01-11T01:28:06.183Z,10.30
2023-01-11T01:30:33.823Z,10.30
2023-01-11T01:33:01.168Z,10.30
2023-01-11T01:35:28.559Z,10.30
2023-01-11T01:37:55.841Z,10.20
2023-01-11T01:40:23.215Z,10.20
2023-01-11T01:42:55.110Z,10.20
2023-01-11T01:45:26.252Z,10.20
2023-01-11T01:47:59.298Z,10.10
2023-01-11T01:50:33.019Z,10.10
2023-01-11T01:53:08.810Z,10.10
2023-01-11T01:55:39.385Z,10.10
2023-01-11T01:58:12.044Z,10.10
2023-01-11T02:00:44.733Z,10.00
2023-01-11T02:03:19.441Z,10.00
2023-01-11T02:05:47.548Z,10.00
2023-01-11T02:08:36.986Z,10.00
2023-01-11T02:11:27.106Z,10.00
2023-01-11T02:13:55.612Z,9.90
2023-01-11T02:16:22.966Z,9.90
2023-01-11T02:18:50.481Z,9.90
2023-01-11T02:21:39.110Z,9.90
2023-01-11T02:24:30.270Z,9.90
2023-01-11T02:27:22.724Z,9.80
2023-01-11T02:30:08.922Z,9.80
2023-01-11T02:33:03.350Z,9.90
2023-01-11T02:35:45.129Z,9.90
2023-01-11T02:38:38.454Z,9.80
2023-01-11T02:41:54.903Z,9.80
2023-01-11T02:44:55.165Z,9.80
2023-01-11T02:47:52.378Z,9.70
2023-01-11T02:50:34.936Z,9.70
2023-01-11T02:53:33.040Z,9.60
2023-01-11T02:56:07.095Z,9.60
2023-01-11T02:58:37.764Z,9.60
2023-01-11T03:01:05.653Z,9.50
2023-01-11T03:03:34.107Z,9.50
2023-01-11T03:06:15.245Z,9.50
2023-01-11T03:09:07.843Z,9.50
2023-01-11T03:12:08.774Z,9.40
2023-01-11T03:14:59.623Z,9.40
2023-01-11T03:17:50.823Z,9.40
2023-01-11T03:20:24.666Z,9.40
2023-01-11T03:23:22.087Z,9.40
2023-01-11T03:25:58.239Z,9.40
2023-01-11T03:28:37.213Z,9.40
2023-01-11T03:31:07.295Z,9.40
2023-01-11T03:34:09.257Z,9.30
2023-01-11T03:37:02.143Z,9.30
2023-01-11T03:39:54.929Z,9.30
2023-01-11T03:42:26.039Z,9.20
2023-01-11T03:44:54.764Z,9.20
2023-01-11T03:47:25.761Z,9.20
2023-01-11T03:49:59.484Z,9.20
2023-01-11T03:52:32.307Z,9.20
2023-01-11T03:55:02.365Z,9.10
2023-01-11T03:57:40.825Z,9.10
2023-01-11T04:00:09.084Z,9.20
2023-01-11T04:02:40.998Z,9.10
2023-01-11T04:05:10.799Z,9.10
2023-01-11T04:07:38.641Z,9.10
2023-01-11T04:10:06.947Z,9.00
2023-01-11T04:12:34.239Z,9.00
2023-01-11T04:15:03.320Z,9.10
2023-01-11T04:17:30.828Z,9.00
2023-01-11T04:19:58.173Z,9.00
2023-01-11T04:22:25.479Z,9.00
2023-01-11T04:24:52.809Z,9.00
2023-01-11T04:27:20.131Z,8.90
2023-01-11T04:29:47.474Z,9.00
2023-01-11T04:32:14.801Z,8.90
2023-01-11T04:34:42.120Z,8.90
2023-01-11T04:37:09.616Z,8.90
2023-01-11T04:39:36.959Z,8.90
2023-01-11T04:42:19.758Z,8.80
2023-01-11T04:44:51.020Z,8.80
2023-01-11T04:47:20.814Z,8.80
2023-01-11T04:49:49.321Z,8.80
2023-01-11T04:52:18.597Z,8.80
2023-01-11T04:54:47.173Z,8.90
2023-01-11T04:57:16.620Z,8.80
2023-01-11T04:59:46.686Z,8.90
2023-01-11T05:02:15.103Z,8.90
2023-01-11T05:04:43.018Z,8.80
2023-01-11T05:07:11.543Z,8.80
2023-01-11T05:09:40.749Z,8.80
2023-01-11T05:12:08.175Z,8.80
2023-01-11T05:14:35.587Z,8.80
2023-01-11T05:17:02.955Z,8.80
2023-01-11T05:19:30.355Z,8.80
2023-01-11T05:21:57.781Z,8.70
2023-01-11T05:24:25.195Z,8.70
2023-01-11T05:26:53.309Z,8.70
2023-01-11T05:29:21.291Z,8.70
2023-01-11T05:31:50.017Z,8.70
2023-01-11T05:34:17.947Z,8.70
2023-01-11T05:36:45.588Z,8.60
2023-01-11T05:39:13.684Z,8.60
2023-01-11T05:41:41.425Z,8.60
2023-01-11T05:44:31.176Z,8.60
2023-01-11T05:46:58.726Z,8.60
2023-01-11T05:49:26.227Z,8.60
2023-01-11T05:51:53.671Z,8.60
2023-01-11T05:54:21.074Z,8.60
2023-01-11T05:56:48.558Z,8.60
2023-01-11T05:59:16.029Z,8.60
2023-01-11T06:01:43.498Z,8.50
2023-01-11T06:04:10.992Z,8.50
2023-01-11T06:06:38.539Z,8.50
2023-01-11T06:09:05.963Z,8.50
2023-01-11T06:11:33.420Z,8.50
2023-01-11T06:14:01.044Z,8.40
2023-01-11T06:16:28.548Z,8.50
2023-01-11T06:18:56.102Z,8.40
2023-01-11T06:21:24.362Z,8.40
2023-01-11T06:23:51.861Z,8.40
2023-01-11T06:26:21.915Z,8.40
2023-01-11T06:28:50.357Z,8.40
2023-01-11T06:31:18.418Z,8.40
2023-01-11T06:33:46.487Z,8.30
2023-01-11T06:36:15.052Z,8.40
2023-01-11T06:38:43.914Z,8.40
2023-01-11T06:41:12.416Z,8.40
2023-01-11T06:43:41.947Z,8.40
2023-01-11T06:46:14.647Z,8.30
2023-01-11T06:48:42.984Z,8.30
2023-01-11T06:51:12.099Z,8.30
2023-01-11T06:53:41.385Z,8.30
2023-01-11T06:56:13.071Z,8.30
2023-01-11T06:58:40.555Z,8.20
2023-01-11T07:01:07.997Z,8.20
2023-01-11T07:03:35.639Z,8.20
2023-01-11T07:06:04.750Z,8.20
2023-01-11T07:08:32.302Z,8.20
2023-01-11T07:10:59.779Z,8.30
2023-01-11T07:13:27.185Z,8.30
2023-01-11T07:15:57.680Z,8.30
2023-01-11T07:18:25.351Z,8.20
2023-01-11T07:20:52.777Z,8.20
2023-01-11T07:23:20.464Z,8.20
2023-01-11T07:25:49.188Z,8.20
2023-01-11T07:28:16.715Z,8.20
2023-01-11T07:30:57.605Z,8.20
2023-01-11T07:33:27.066Z,8.20
2023-01-11T07:35:55.032Z,8.20
2023-01-11T07:38:22.925Z,8.20
2023-01-11T07:40:50.344Z,8.20
2023-01-11T07:43:23.240Z,8.20
2023-01-11T07:45:52.792Z,8.20
2023-01-11T07:48:26.399Z,8.10
2023-01-11T07:50:54.524Z,8.20
2023-01-11T07:53:25.449Z,8.20
2023-01-11T07:55:54.625Z,8.10
2023-01-11T07:58:22.486Z,8.10
2023-01-11T08:00:49.941Z,8.10
2023-01-11T08:03:17.572Z,8.10
2023-01-11T08:05:50.364Z,8.10
2023-01-11T08:08:17.778Z,8.10
2023-01-11T08:10:45.167Z,8.00
2023-01-11T08:13:32.987Z,8.10
2023-01-11T08:16:00.467Z,8.10
2023-01-11T08:18:28.003Z,8.10
2023-01-11T08:20:55.472Z,8.10
2023-01-11T08:23:22.874Z,8.00
2023-01-11T08:25:50.257Z,8.00
2023-01-11T08:28:17.671Z,8.10
2023-01-11T08:30:45.123Z,8.10
2023-01-11T08:33:12.521Z,8.10
2023-01-11T08:35:40.178Z,8.10
2023-01-11T08:38:08.218Z,8.00
2023-01-11T08:40:36.281Z,8.00
2023-01-11T08:43:03.805Z,8.00
2023-01-11T08:45:31.247Z,8.00
2023-01-11T08:48:00.006Z,8.10
2023-01-11T08:50:27.518Z,8.00
2023-01-11T08:52:54.929Z,8.00
2023-01-11T08:55:22.288Z,8.00
2023-01-11T08:57:49.608Z,8.00
2023-01-11T09:00:17.539Z,8.00
2023-01-11T09:02:45.871Z,8.00
2023-01-11T09:05:13.686Z,8.00
2023-01-11T09:07:41.055Z,8.00
2023-01-11T09:10:08.962Z,8.00
2023-01-11T09:12:36.650Z,8.00
2023-01-11T09:15:06.040Z,8.00
2023-01-11T09:17:33.903Z,8.00
2023-01-11T09:20:01.368Z,8.00
2023-01-11T09:22:28.909Z,8.00
2023-01-11T09:24:59.021Z,8.00
2023-01-11T09:27:26.604Z,8.10
2023-01-11T09:29:54.007Z,8.10
2023-01-11T09:32:21.649Z,8.20
2023-01-11T09:34:49.835Z,8.20
2023-01-11T09:37:17.543Z,8.20
2023-01-11T09:39:45.414Z,8.30
2023-01-11T09:42:27.092Z,8.40
2023-01-11T09:44:58.817Z,8.40
2023-01-11T09:47:36.706Z,8.40
2023-01-11T09:50:10.437Z,8.40
2023-01-11T09:52:42.229Z,8.40
2023-01-11T09:55:20.137Z,8.50
2023-01-11T09:58:26.889Z,8.60
2023-01-11T10:01:11.021Z,8.60
2023-01-11T10:04:09.984Z,8.60
2023-01-11T10:07:14.327Z,8.70
2023-01-11T10:18:25.376Z,8.80
2023-01-11T10:19:41.099Z,8.80
2023-01-11T10:22:17.880Z,8.90
2023-01-11T10:24:56.342Z,8.90
2023-01-11T10:27:38.858Z,8.90
2023-01-11T10:30:36.447Z,9.00
2023-01-11T10:33:31.722Z,9.00
2023-01-11T10:36:30.114Z,9.10
2023-01-11T10:39:35.847Z,9.10
2023-01-11T10:42:13.239Z,9.20
2023-01-11T10:44:54.712Z,9.20
2023-01-11T10:47:27.964Z,9.30
2023-01-11T10:50:05.137Z,9.30
2023-01-11T10:52:52.064Z,9.30
2023-01-11T10:55:26.473Z,9.40
2023-01-11T10:58:22.760Z,9.40
2023-01-11T11:01:13.209Z,9.40
2023-01-11T11:03:48.833Z,9.50
2023-01-11T11:06:26.424Z,9.50
2023-01-11T11:09:06.060Z,9.50
2023-01-11T11:11:47.051Z,9.50
2023-01-11T11:14:27.250Z,9.60
2023-01-11T11:17:23.859Z,9.50
2023-01-11T11:19:52.506Z,9.50
2023-01-11T11:22:20.996Z,9.60
2023-01-11T11:24:53.466Z,9.60
2023-01-11T11:27:46.656Z,9.60
2023-01-11T11:30:24.786Z,9.70
2023-01-11T11:32:59.719Z,9.70
2023-01-11T11:35:40.581Z,9.80
2023-01-11T11:38:24.749Z,9.80
2023-01-11T11:41:19.251Z,9.90
2023-01-11T11:43:47.928Z,10.00
2023-01-11T11:46:19.519Z,10.00
2023-01-11T11:49:10.114Z,10.00
2023-01-11T11:51:38.461Z,10.00
2023-01-11T11:54:05.978Z,10.00
2023-01-11T11:56:35.984Z,10.00
2023-01-11T11:59:09.669Z,10.10
2023-01-11T12:01:40.522Z,10.20
2023-01-11T12:04:18.737Z,10.20
2023-01-11T12:07:05.425Z,10.20
2023-01-11T12:09:35.009Z,10.20
2023-01-11T12:12:03.559Z,10.30
2023-01-11T12:14:34.519Z,10.30
2023-01-11T12:17:23.224Z,10.30
2023-01-11T12:19:50.920Z,10.30
2023-01-11T12:22:19.740Z,10.50
2023-01-11T12:25:08.385Z,10.50
2023-01-11T12:28:09.109Z,10.60
2023-01-11T12:30:55.542Z,10.80
2023-01-11T12:33:23.123Z,10.90
2023-01-11T12:36:03.100Z,11.20
2023-01-11T12:38:48.784Z,11.40
2023-01-11T12:41:50.259Z,11.40
2023-01-11T12:44:41.692Z,11.10
2023-01-11T12:47:23.980Z,10.90
2023-01-11T12:49:51.415Z,10.70
2023-01-11T12:52:21.769Z,10.70
2023-01-11T12:55:09.799Z,10.60
2023-01-11T12:58:05.353Z,10.60
2023-01-11T13:00:52.428Z,10.60
2023-01-11T13:03:39.810Z,10.50
2023-01-11T13:06:14.181Z,10.50
2023-01-11T13:09:03.180Z,10.50
2023-01-11T13:11:40.249Z,10.50
2023-01-11T13:14:26.085Z,10.50
2023-01-11T13:17:18.216Z,10.50
2023-01-11T13:19:50.929Z,10.50
2023-01-11T13:22:22.605Z,10.50
2023-01-11T13:24:51.409Z,10.50
2023-01-11T13:27:24.639Z,10.50
2023-01-11T13:29:56.252Z,10.50
2023-01-11T13:32:32.805Z,10.50
2023-01-11T13:35:17.875Z,10.50
2023-01-11T13:37:58.612Z,10.50
2023-01-11T13:40:35.530Z,10.50
2023-01-11T13:43:13.791Z,10.60
2023-01-11T13:46:06.118Z,10.60
2023-01-11T13:49:00.511Z,10.60
2023-01-11T13:51:59.555Z,10.60
2023-01-11T13:54:33.393Z,10.60
2023-01-11T13:57:04.968Z,10.50
2023-01-11T13:59:45.731Z,10.50
2023-01-11T14:02:38.034Z,10.50
2023-01-11T14:05:17.184Z,10.40
2023-01-11T14:08:09.514Z,10.40
2023-01-11T14:10:46.216Z,10.30
2023-01-11T14:13:50.397Z,10.30
2023-01-11T14:16:55.758Z,10.20
2023-01-11T14:19:38.193Z,10.10
2023-01-11T14:22:39.110Z,10.00
2023-01-11T14:25:26.373Z,9.90
2023-01-11T14:28:22.185Z,9.90
2023-01-11T14:31:34.608Z,9.90
2023-01-11T14:34:20.983Z,9.90
2023-01-11T14:37:00.032Z,9.80
2023-01-11T14:40:04.317Z,9.70
2023-01-11T14:43:04.194Z,9.70
2023-01-11T14:45:37.546Z,9.70
2023-01-11T14:48:21.119Z,9.70
2023-01-11T14:51:02.526Z,9.70
2023-01-11T14:53:35.803Z,9.60
2023-01-11T14:56:03.181Z,9.60
2023-01-11T14:58:32.516Z,9.60
2023-01-11T15:01:00.009Z,9.40
2023-01-11T15:03:46.755Z,9.30
2023-01-11T15:06:17.126Z,9.30
2023-01-11T15:08:49.124Z,9.20
2023-01-11T15:11:40.802Z,9.20
2023-01-11T15:14:20.470Z,9.20
2023-01-11T15:17:11.156Z,9.20
2023-01-11T15:19:41.744Z,9.20
2023-01-11T15:22:30.803Z,9.10
2023-01-11T15:25:07.489Z,9.00
2023-01-11T15:27:37.463Z,8.90
2023-01-11T15:30:07.689Z,8.80
2023-01-11T15:32:35.919Z,8.70
2023-01-11T15:35:32.669Z,8.60
2023-01-11T15:38:13.559Z,8.50
2023-01-11T15:40:48.146Z,8.50
2023-01-11T15:43:48.053Z,8.50
2023-01-11T15:46:54.846Z,8.50
2023-01-11T15:49:40.108Z,8.60
2023-01-11T15:52:26.506Z,8.60
2023-01-11T15:55:21.376Z,8.60
2023-01-11T15:58:07.033Z,8.60
2023-01-11T16:01:02.696Z,8.50
2023-01-11T16:04:07.611Z,8.50
2023-01-11T16:06:53.733Z,8.50
2023-01-11T16:09:24.024Z,8.40
2023-01-11T16:12:27.616Z,8.40
2023-01-11T16:15:10.323Z,8.40
2023-01-11T16:17:41.029Z,8.30
2023-01-11T16:20:20.521Z,8.30
2023-01-11T16:22:51.662Z,8.30
2023-01-11T16:25:21.318Z,8.20
2023-01-11T16:27:53.977Z,8.10
2023-01-11T16:30:22.013Z,8.10
2023-01-11T16:32:49.756Z,8.00
2023-01-11T16:35:23.593Z,8.00
2023-01-11T16:37:59.562Z,8.00
2023-01-11T16:40:37.872Z,8.00
2023-01-11T16:43:20.445Z,8.10
2023-01-11T16:45:51.249Z,8.20
2023-01-11T16:48:21.584Z,8.10
2023-01-11T16:51:14.265Z,8.20
2023-01-11T16:53:43.834Z,8.20
2023-01-11T16:56:18.820Z,8.10
2023-01-11T16:59:04.488Z,8.10
2023-01-11T17:01:59.174Z,8.10
2023-01-11T17:04:38.312Z,8.20
2023-01-11T17:07:14.585Z,8.10
2023-01-11T17:09:43.842Z,8.10
2023-01-11T17:12:18.095Z,8.10
2023-01-11T17:15:01.357Z,8.10
2023-01-11T17:17:34.206Z,8.10
2023-01-11T17:20:01.911Z,8.10
2023-01-11T17:22:36.294Z,8.10
2023-01-11T17:25:16.873Z,8.10
2023-01-11T17:28:01.468Z,8.10
2023-01-11T17:30:30.186Z,8.20
2023-01-11T17:32:59.710Z,8.20
2023-01-11T17:35:36.628Z,8.20
2023-01-11T17:38:08.642Z,8.10
2023-01-11T17:40:40.302Z,8.20
2023-01-11T17:43:40.805Z,8.20
2023-01-11T17:46:13.820Z,8.20
2023-01-11T17:48:53.218Z,8.20
2023-01-11T17:51:32.052Z,8.20
2023-01-11T17:53:59.759Z,8.30
2023-01-11T17:56:35.490Z,8.40
2023-01-11T17:59:21.960Z,8.40
2023-01-11T18:02:15.284Z,8.50
2023-01-11T18:04:43.114Z,8.50
2023-01-11T18:07:19.870Z,8.50
2023-01-11T18:09:50.487Z,8.50
2023-01-11T18:12:34.268Z,8.60
2023-01-11T18:15:06.697Z,8.60
2023-01-11T18:17:37.033Z,8.70
2023-01-11T18:20:22.623Z,8.80
2023-01-11T18:23:11.019Z,8.80
2023-01-11T18:25:38.674Z,9.00
2023-01-11T18:28:12.317Z,9.00
2023-01-11T18:30:41.157Z,9.00
2023-01-11T18:33:17.063Z,9.00
2023-01-11T18:35:46.899Z,9.00
2023-01-11T18:38:17.061Z,9.10
2023-01-11T18:40:45.884Z,9.10
2023-01-11T18:43:14.602Z,9.10
2023-01-11T18:45:42.471Z,9.20
2023-01-11T18:48:14.333Z,9.20
2023-01-11T18:50:43.839Z,9.20
2023-01-11T18:53:13.642Z,9.20
2023-01-11T18:55:41.371Z,9.30
2023-01-11T18:58:09.908Z,9.20
2023-01-11T19:00:37.606Z,9.30
2023-01-11T19:03:05.821Z,9.30
2023-01-11T19:05:33.274Z,9.30
2023-01-11T19:08:00.719Z,9.30
2023-01-11T19:10:28.670Z,9.30
2023-01-11T19:12:57.714Z,9.40
2023-01-11T19:15:25.974Z,9.30
2023-01-11T19:17:53.475Z,9.30
2023-01-11T19:20:20.837Z,9.30
2023-01-11T19:22:48.385Z,9.30
2023-01-11T19:25:15.855Z,9.30
2023-01-11T19:27:44.062Z,9.40
2023-01-11T19:30:12.503Z,9.40
2023-01-11T19:32:40.078Z,9.40
2023-01-11T19:35:08.368Z,9.40
2023-01-11T19:37:37.626Z,9.40
2023-01-11T19:40:05.891Z,9.40
2023-01-11T19:42:33.339Z,9.40
2023-01-11T19:45:00.832Z,9.50
2023-01-11T19:47:28.372Z,9.50
2023-01-11T19:49:58.921Z,9.50
2023-01-11T19:52:26.743Z,9.60
2023-01-11T19:54:55.141Z,9.60
2023-01-11T19:57:22.726Z,9.60
2023-01-11T19:59:50.761Z,9.60
2023-01-11T20:02:21.020Z,9.60
2023-01-11T20:04:48.787Z,9.60
2023-01-11T20:07:17.070Z,9.60
2023-01-11T20:09:44.747Z,9.70
2023-01-11T20:12:13.166Z,9.70
2023-01-11T20:14:41.111Z,9.70
2023-01-11T20:17:09.348Z,9.70
2023-01-11T20:19:36.933Z,9.70
2023-01-11T20:22:04.724Z,9.70
2023-01-11T20:24:32.078Z,9.70
2023-01-11T20:27:02.179Z,9.80
2023-01-11T20:29:30.006Z,9.80
2023-01-11T20:32:10.539Z,9.80
2023-01-11T20:34:45.094Z,9.80
2023-01-11T20:37:12.537Z,9.80
2023-01-11T20:39:39.921Z,9.80
2023-01-11T20:42:08.827Z,9.80
2023-01-11T20:44:36.183Z,9.80
2023-01-11T20:47:03.658Z,9.80
2023-01-11T20:49:31.282Z,9.90
2023-01-11T20:51:58.776Z,9.90
2023-01-11T20:54:26.206Z,9.90
2023-01-11T20:56:54.197Z,9.90
2023-01-11T20:59:21.925Z,9.90
2023-01-11T21:01:50.152Z,9.90
2023-01-11T21:04:17.996Z,9.90
2023-01-11T21:06:50.162Z,9.90
2023-01-11T21:09:18.559Z,10.00
2023-01-11T21:11:53.819Z,9.90
2023-01-11T21:14:24.447Z,9.90
2023-01-11T21:16:55.145Z,9.80
2023-01-11T21:19:23.060Z,9.90
2023-01-11T21:21:50.879Z,9.80
2023-01-11T21:24:18.748Z,9.70
2023-01-11T21:26:47.989Z,9.80
2023-01-11T21:29:15.881Z,9.80
2023-01-11T21:31:43.400Z,9.80
2023-01-11T21:34:12.947Z,9.80
2023-01-11T21:36:41.131Z,9.80
2023-01-11T21:39:10.404Z,9.90
2023-01-11T21:41:58.827Z,9.90
2023-01-11T21:44:31.019Z,9.90
2023-01-11T21:46:58.949Z,9.90
2023-01-11T21:49:26.554Z,10.00
2023-01-11T21:51:54.294Z,10.10
2023-01-11T21:54:21.914Z,10.10
2023-01-11T21:56:50.367Z,10.10
2023-01-11T21:59:18.069Z,10.10
2023-01-11T22:01:49.156Z,10.10
2023-01-11T22:04:18.650Z,10.20
2023-01-11T22:06:51.137Z,10.20
2023-01-11T22:09:19.610Z,10.20
2023-01-11T22:11:47.322Z,10.20
2023-01-11T22:14:14.779Z,10.20
2023-01-11T22:16:42.370Z,10.20
2023-01-11T22:19:09.866Z,10.20
2023-01-11T22:21:37.894Z,10.20
2023-01-11T22:24:08.437Z,10.30
2023-01-11T22:26:39.094Z,10.30
2023-01-11T22:29:16.610Z,10.30
2023-01-11T22:31:47.112Z,10.30
2023-01-11T22:34:15.699Z,10.30
2023-01-11T22:36:44.259Z,10.30
2023-01-11T22:39:13.784Z,10.30
2023-01-11T22:41:41.484Z,10.30
2023-01-11T22:44:09.459Z,10.30
2023-01-11T22:46:36.858Z,10.30
2023-01-11T22:49:06.149Z,10.30
2023-01-11T22:51:33.656Z,10.40
2023-01-11T22:54:01.256Z,10.30
2023-01-11T22:56:31.219Z,10.40
2023-01-11T22:58:58.749Z,10.40
2023-01-11T23:01:37.551Z,10.40
2023-01-11T23:04:06.863Z,10.40
2023-01-11T23:06:37.287Z,10.40
2023-01-11T23:09:07.055Z,10.40
2023-01-11T23:11:56.436Z,10.40
2023-01-11T23:14:33.662Z,10.50
2023-01-11T23:17:07.571Z,10.50
2023-01-11T23:19:36.974Z,10.50
2023-01-11T23:22:05.015Z,10.50
2023-01-11T23:24:32.825Z,10.50
2023-01-11T23:27:00.289Z,10.60
2023-01-11T23:29:27.921Z,10.60
2023-01-11T23:31:55.288Z,10.60
2023-01-11T23:34:23.084Z,10.60
2023-01-11T23:36:50.516Z,10.60
2023-01-11T23:39:21.042Z,10.60
2023-01-11T23:42:23.930Z,10.50
2023-01-11T23:44:51.415Z,10.40
2023-01-11T23:47:21.826Z,10.50
2023-01-11T23:49:55.157Z,10.50
2023-01-11T23:52:25.435Z,10.40
2023-01-11T23:54:53.439Z,10.30
2023-01-11T23:57:22.028Z,10.40
2023-01-11T23:59:49.587Z,10.30
